Thomson Majesty — 9HA2188 — position and weather

sailwx.info

Track history (hours):
 
Tides and Currents Weather Stations Pressure Air Temp Water Temp Dewpoint Dewpoint Depression Visibility Wind Speed Wind Dir Waves Ship Positions

Thomson Majesty

Last reported at 2014-Nov-18 02:33 UTC. Time now 2014-Dec-23 04:26 UTC.
Position N 32°10' W 016°23'.
Warning: this ship's position is 35 days out of date.

Length 207 m; draft 6.2 m.

Type: Ship. MMSI: 248124000.

Date/timePositionNaut miles runAvg speedWind from/ knotsBaromVisibWave heightAir tempDewpointWater temp
2014-Nov-18 02:33N 32°10' W 016°23'1211.4
2014-Nov-18 01:32N 32°19' W 016°33'1111.4
2014-Nov-18 00:33N 32°27' W 016°42'1211.8
2014-Nov-17 23:33N 32°36' W 016°51'4 3.9
2014-Nov-17 22:28N 32°39' W 016°55'0 0.0
2014-Nov-17 21:31N 32°39' W 016°55'0 0.0
2014-Nov-17 20:31N 32°39' W 016°55'0 0.0
2014-Nov-17 19:31N 32°39' W 016°55'0 0.0
2014-Nov-17 18:31N 32°39' W 016°55'0 0.0
2014-Nov-17 17:28N 32°39' W 016°55'0 0.0
2014-Nov-17 16:31N 32°39' W 016°55'0 0.0
2014-Nov-17 15:31N 32°39' W 016°55'0 0.0
2014-Nov-17 14:31N 32°39' W 016°55'0 0.0
2014-Nov-17 13:31N 32°39' W 016°55'0 0.0
2014-Nov-17 12:31N 32°39' W 016°55'0 0.0
2014-Nov-17 11:31N 32°39' W 016°55'0 0.0
2014-Nov-17 10:31N 32°39' W 016°55'0 0.0
2014-Nov-17 09:31N 32°39' W 016°55'0 0.0
2014-Nov-17 08:31N 32°39' W 016°55'1010.9
2014-Nov-17 07:33N 32°28' W 016°55'1817.6
2014-Nov-17 06:33N 32°11' W 016°57'1717.4
2014-Nov-17 05:33N 31°53' W 016°60'  
2014-Nov-12 19:32N 32°03' W 017°01'1515.4
2014-Nov-12 18:33N 32°17' W 016°58'1615.8
2014-Nov-12 17:33N 32°33' W 016°55'6 5.5
2014-Nov-12 16:33N 32°39' W 016°55'0 0.0
2014-Nov-12 15:33N 32°39' W 016°55'0 0.0
2014-Nov-12 14:33N 32°39' W 016°55'0 0.0
2014-Nov-12 13:30N 32°39' W 016°55'0 0.0
2014-Nov-12 12:33N 32°39' W 016°55'0 0.0
2014-Nov-12 11:33N 32°39' W 016°55'0 0.0
2014-Nov-12 10:33N 32°39' W 016°55'0 0.0
2014-Nov-12 09:33N 32°39' W 016°55'0 0.0
2014-Nov-12 08:33N 32°39' W 016°55'7 6.9
2014-Nov-12 07:33N 32°37' W 016°47'58915.9
2014-Nov-10 18:34N 35°58' W 005°36'1414.2
2014-Nov-10 17:34N 36°07' W 005°23'2 1.9
2014-Nov-10 16:33N 36°09' W 005°22'0 0.0
2014-Nov-10 15:27N 36°09' W 005°22'0 0.0
2014-Nov-10 14:33N 36°09' W 005°22'0 0.0
2014-Nov-10 13:33N 36°09' W 005°22'0 0.0
2014-Nov-10 12:07N 36°09' W 005°22'0 0.0
2014-Nov-10 11:24N 36°09' W 005°22'0 0.0
2014-Nov-10 10:27N 36°09' W 005°22'0 0.0
2014-Nov-10 09:33N 36°09' W 005°22'0 0.0
2014-Nov-10 08:33N 36°09' W 005°22'0 0.0
2014-Nov-10 07:31N 36°09' W 005°22'0 0.0
2014-Nov-10 06:33N 36°09' W 005°22'2 2.0
2014-Nov-10 05:33N 36°07' W 005°22'21615.1
2014-Nov-09 15:13N 37°11' W 001°05'913.2
2014-Nov-09 14:33N 37°18' W 000°57'1312.9
2014-Nov-09 13:33N 37°26' W 000°45'1313.2
2014-Nov-09 12:33N 37°35' W 000°33'1313.1
2014-Nov-09 11:33N 37°46' W 000°24'1312.7
2014-Nov-09 10:33N 37°57' W 000°15'12113.4
2014-Nov-09 01:31N 39°41' E 001°04'1314.0
2014-Nov-09 00:33N 39°52' E 001°13'1414.0
2014-Nov-08 23:33N 40°04' E 001°23'1413.5
2014-Nov-08 22:33N 40°15' E 001°32'1413.8
2014-Nov-08 21:33N 40°27' E 001°42'1414.1
2014-Nov-08 20:33N 40°39' E 001°51'1414.0
2014-Nov-08 19:33N 40°53' E 001°56'1414.1
2014-Nov-08 18:33N 41°05' E 002°05'1413.7
2014-Nov-08 17:31N 41°18' E 002°14'5 4.8
2014-Nov-08 16:30N 41°22' E 002°11'0 0.0
2014-Nov-08 14:30N 41°22' E 002°11'  
Track history (hours):
 
Tides and Currents Weather Stations Pressure Air Temp Water Temp Dewpoint Dewpoint Depression Visibility Wind Speed Wind Dir Waves Ship Positions

Thomson Majesty

Last reported at 2014-Nov-18 02:33 UTC. Time now 2014-Dec-23 04:26 UTC.
Position N 32°10' W 016°23'.
Warning: this ship's position is 35 days out of date.

Length 207 m; draft 6.2 m.

Type: Ship. MMSI: 248124000.

Date/timePositionNaut miles runAvg speedWind from/ knotsBaromVisibWave heightAir tempDewpointWater temp
2014-Nov-18 02:33N 32°10' W 016°23'1211.4
2014-Nov-18 01:32N 32°19' W 016°33'1111.4
2014-Nov-18 00:33N 32°27' W 016°42'1211.8
2014-Nov-17 23:33N 32°36' W 016°51'4 3.9
2014-Nov-17 22:28N 32°39' W 016°55'0 0.0
2014-Nov-17 21:31N 32°39' W 016°55'0 0.0
2014-Nov-17 20:31N 32°39' W 016°55'0 0.0
2014-Nov-17 19:31N 32°39' W 016°55'0 0.0
2014-Nov-17 18:31N 32°39' W 016°55'0 0.0
2014-Nov-17 17:28N 32°39' W 016°55'0 0.0
2014-Nov-17 16:31N 32°39' W 016°55'0 0.0
2014-Nov-17 15:31N 32°39' W 016°55'0 0.0
2014-Nov-17 14:31N 32°39' W 016°55'0 0.0
2014-Nov-17 13:31N 32°39' W 016°55'0 0.0
2014-Nov-17 12:31N 32°39' W 016°55'0 0.0
2014-Nov-17 11:31N 32°39' W 016°55'0 0.0
2014-Nov-17 10:31N 32°39' W 016°55'0 0.0
2014-Nov-17 09:31N 32°39' W 016°55'0 0.0
2014-Nov-17 08:31N 32°39' W 016°55'1010.9
2014-Nov-17 07:33N 32°28' W 016°55'1817.6
2014-Nov-17 06:33N 32°11' W 016°57'1717.4
2014-Nov-17 05:33N 31°53' W 016°60'  
2014-Nov-12 19:32N 32°03' W 017°01'1515.4
2014-Nov-12 18:33N 32°17' W 016°58'1615.8
2014-Nov-12 17:33N 32°33' W 016°55'6 5.5
2014-Nov-12 16:33N 32°39' W 016°55'0 0.0
2014-Nov-12 15:33N 32°39' W 016°55'0 0.0
2014-Nov-12 14:33N 32°39' W 016°55'0 0.0
2014-Nov-12 13:30N 32°39' W 016°55'0 0.0
2014-Nov-12 12:33N 32°39' W 016°55'0 0.0
2014-Nov-12 11:33N 32°39' W 016°55'0 0.0
2014-Nov-12 10:33N 32°39' W 016°55'0 0.0
2014-Nov-12 09:33N 32°39' W 016°55'0 0.0
2014-Nov-12 08:33N 32°39' W 016°55'7 6.9
2014-Nov-12 07:33N 32°37' W 016°47'58915.9
2014-Nov-10 18:34N 35°58' W 005°36'1414.2
2014-Nov-10 17:34N 36°07' W 005°23'2 1.9
2014-Nov-10 16:33N 36°09' W 005°22'0 0.0
2014-Nov-10 15:27N 36°09' W 005°22'0 0.0
2014-Nov-10 14:33N 36°09' W 005°22'0 0.0
2014-Nov-10 13:33N 36°09' W 005°22'0 0.0
2014-Nov-10 12:07N 36°09' W 005°22'0 0.0
2014-Nov-10 11:24N 36°09' W 005°22'0 0.0
2014-Nov-10 10:27N 36°09' W 005°22'0 0.0
2014-Nov-10 09:33N 36°09' W 005°22'0 0.0
2014-Nov-10 08:33N 36°09' W 005°22'0 0.0
2014-Nov-10 07:31N 36°09' W 005°22'0 0.0
2014-Nov-10 06:33N 36°09' W 005°22'2 2.0
2014-Nov-10 05:33N 36°07' W 005°22'21615.1
2014-Nov-09 15:13N 37°11' W 001°05'913.2
2014-Nov-09 14:33N 37°18' W 000°57'1312.9
2014-Nov-09 13:33N 37°26' W 000°45'1313.2
2014-Nov-09 12:33N 37°35' W 000°33'1313.1
2014-Nov-09 11:33N 37°46' W 000°24'1312.7
2014-Nov-09 10:33N 37°57' W 000°15'12113.4
2014-Nov-09 01:31N 39°41' E 001°04'1314.0
2014-Nov-09 00:33N 39°52' E 001°13'1414.0
2014-Nov-08 23:33N 40°04' E 001°23'1413.5
2014-Nov-08 22:33N 40°15' E 001°32'1413.8
2014-Nov-08 21:33N 40°27' E 001°42'1414.1
2014-Nov-08 20:33N 40°39' E 001°51'1414.0
2014-Nov-08 19:33N 40°53' E 001°56'1414.1
2014-Nov-08 18:33N 41°05' E 002°05'1413.7
2014-Nov-08 17:31N 41°18' E 002°14'5 4.8
2014-Nov-08 16:30N 41°22' E 002°11'0 0.0
2014-Nov-08 14:30N 41°22' E 002°11'  

Dump ship's entire track history